Time;durP1;ratioP1;P1;durP2;ratioP2;P2;SDS_P1;SDS_P2;PMS_P1;PMS_P2;Temp;Humidity;BMP_temperature;BMP_pressure;BME280_temperature;BME280_humidity;BME280_pressure;Samples;Min_cycle;Max_cycle;Signal;HPM_P1;HPM_P2
2023/06/12 00:00:10;;;;;;;;;;;22.00;63.90;;;;;;4987220;28;20448;-68
2023/06/12 00:02:37;;;;;;;;;;;22.00;63.90;;;;;;4987613;28;19925;-68
2023/06/12 00:05:04;;;;;;;;;;;22.00;63.40;;;;;;4987381;28;20312;-68
2023/06/12 00:07:31;;;;;;;;;;;21.90;63.30;;;;;;4984476;28;19968;-68
2023/06/12 00:09:57;;;;;;;;;;;21.90;63.40;;;;;;4967993;28;19976;-68
2023/06/12 00:12:22;;;;;;;;;;;21.90;63.60;;;;;;4968039;28;20574;-68
2023/06/12 00:14:48;;;;;;;;;;;21.80;63.50;;;;;;4968131;28;20373;-68
2023/06/12 00:17:13;;;;;;;;;;;21.80;63.60;;;;;;4967663;28;20585;-68
2023/06/12 00:19:39;;;;;;;;;;;21.80;63.60;;;;;;4967651;28;19914;-68
2023/06/12 00:22:05;;;;;;;;;;;21.70;63.80;;;;;;4967554;28;20004;-68
2023/06/12 00:24:30;;;;;;;;;;;21.70;64.20;;;;;;4967838;28;19921;-68
2023/06/12 00:26:56;;;;;;;;;;;21.60;63.80;;;;;;4967762;28;19914;-68
2023/06/12 00:29:21;;;;;;;;;;;21.60;63.90;;;;;;4967951;28;19914;-68
2023/06/12 00:31:47;;;;;;;;;;;21.60;63.90;;;;;;4982151;28;19913;-68
2023/06/12 00:34:12;;;;;;;;;;;21.50;64.00;;;;;;4986819;28;20021;-68
2023/06/12 00:36:38;;;;;;;;;;;21.50;63.70;;;;;;4986985;28;19921;-68
2023/06/12 00:39:03;;;;;;;;;;;21.40;63.90;;;;;;4971544;28;20307;-68
2023/06/12 00:41:29;;;;;;;;;;;21.50;64.00;;;;;;4967661;28;19921;-68
2023/06/12 00:43:54;;;;;;;;;;;21.40;63.80;;;;;;4966017;28;20025;-68
2023/06/12 00:46:21;;;;;;;;;;;21.40;63.90;;;;;;4967470;28;19997;-68
2023/06/12 00:48:47;;;;;;;;;;;21.40;64.10;;;;;;4966157;28;19964;-68
2023/06/12 00:51:12;;;;;;;;;;;21.30;64.20;;;;;;4989080;28;19985;-68
2023/06/12 00:53:38;;;;;;;;;;;21.30;64.20;;;;;;4985510;28;19913;-68
2023/06/12 00:56:04;;;;;;;;;;;21.30;64.30;;;;;;4980757;28;20585;-68
2023/06/12 00:58:29;;;;;;;;;;;21.20;64.30;;;;;;4986389;28;19910;-68
2023/06/12 01:00:56;;;;;;;;;;;21.20;64.10;;;;;;4986790;28;19974;-68
2023/06/12 01:03:24;;;;;;;;;;;21.20;64.50;;;;;;4987913;28;20037;-68
2023/06/12 01:05:50;;;;;;;;;;;21.10;64.30;;;;;;4989894;28;19914;-69
2023/06/12 01:08:26;;;;;;;;;;;21.10;64.60;;;;;;4980975;28;19959;-68
2023/06/12 01:10:51;;;;;;;;;;;21.10;64.60;;;;;;4970628;28;19921;-68
2023/06/12 01:13:20;;;;;;;;;;;21.00;64.70;;;;;;4970666;28;19914;-68
2023/06/12 01:15:46;;;;;;;;;;;21.00;64.80;;;;;;4970141;28;19914;-68
2023/06/12 01:18:11;;;;;;;;;;;20.90;64.40;;;;;;4970563;28;19914;-68
2023/06/12 01:20:37;;;;;;;;;;;20.90;64.80;;;;;;4970413;28;19937;-68
2023/06/12 01:23:15;;;;;;;;;;;20.90;65.00;;;;;;4970279;28;19922;-68
2023/06/12 01:26:00;;;;;;;;;;;20.90;64.90;;;;;;4995043;28;19917;-68
2023/06/12 01:28:25;;;;;;;;;;;20.80;65.00;;;;;;4990030;28;20337;-68
2023/06/12 01:30:54;;;;;;;;;;;20.80;65.00;;;;;;4995793;28;19913;-68
2023/06/12 01:33:30;;;;;;;;;;;20.80;65.00;;;;;;4976191;28;19964;-68
2023/06/12 01:35:58;;;;;;;;;;;20.80;65.20;;;;;;4970017;28;20290;-68
2023/06/12 01:38:26;;;;;;;;;;;20.70;65.10;;;;;;4990002;28;19914;-68
2023/06/12 01:40:52;;;;;;;;;;;20.70;65.30;;;;;;5009361;28;20316;-68
2023/06/12 01:43:17;;;;;;;;;;;20.60;65.20;;;;;;5009355;28;19917;-68
2023/06/12 01:45:43;;;;;;;;;;;20.60;65.30;;;;;;5008789;28;19913;-68
2023/06/12 01:48:09;;;;;;;;;;;20.60;65.20;;;;;;5009295;28;19941;-68
2023/06/12 01:50:34;;;;;;;;;;;20.60;65.30;;;;;;5009014;28;20350;-68
2023/06/12 01:53:01;;;;;;;;;;;20.50;65.30;;;;;;4992343;28;20009;-68
2023/06/12 01:55:27;;;;;;;;;;;20.60;65.50;;;;;;4988962;28;19914;-68
2023/06/12 01:57:53;;;;;;;;;;;20.50;65.50;;;;;;4989063;28;19914;-68
2023/06/12 02:00:18;;;;;;;;;;;20.50;65.60;;;;;;4989329;28;19979;-68
2023/06/12 02:02:45;;;;;;;;;;;20.40;65.60;;;;;;4989362;28;19921;-68
2023/06/12 02:05:10;;;;;;;;;;;20.40;65.70;;;;;;4989165;28;20325;-68
2023/06/12 02:07:36;;;;;;;;;;;20.40;65.50;;;;;;4986234;28;19918;-68
2023/06/12 02:10:02;;;;;;;;;;;20.30;66.20;;;;;;5001155;28;19910;-68
2023/06/12 02:12:29;;;;;;;;;;;20.40;65.80;;;;;;5002307;28;21720;-68
2023/06/12 02:14:57;;;;;;;;;;;20.30;65.80;;;;;;5002526;28;19966;-68
2023/06/12 02:17:22;;;;;;;;;;;20.30;65.90;;;;;;5008686;28;19920;-68
2023/06/12 02:19:48;;;;;;;;;;;20.30;66.00;;;;;;5008632;28;19910;-68
2023/06/12 02:22:14;;;;;;;;;;;20.20;66.00;;;;;;5008499;28;19921;-68
2023/06/12 02:24:39;;;;;;;;;;;20.20;66.40;;;;;;5008806;28;20381;-68
2023/06/12 02:27:05;;;;;;;;;;;20.20;66.10;;;;;;5008274;28;19921;-68
2023/06/12 02:29:31;;;;;;;;;;;20.10;66.20;;;;;;5008382;28;19921;-68
2023/06/12 02:31:56;;;;;;;;;;;20.10;66.20;;;;;;4991277;28;19932;-68
2023/06/12 02:34:22;;;;;;;;;;;20.10;66.30;;;;;;4988799;28;19929;-68
2023/06/12 02:36:47;;;;;;;;;;;20.10;66.40;;;;;;4988714;28;19940;-68
2023/06/12 02:39:13;;;;;;;;;;;20.00;66.90;;;;;;4972234;28;19933;-68
2023/06/12 02:41:44;;;;;;;;;;;20.00;66.40;;;;;;4969367;28;19925;-68
2023/06/12 02:44:09;;;;;;;;;;;20.00;66.50;;;;;;4969187;28;19921;-68
2023/06/12 02:46:48;;;;;;;;;;;20.00;66.20;;;;;;4969125;28;19910;-68
2023/06/12 02:49:14;;;;;;;;;;;20.00;66.50;;;;;;4989686;28;20527;-68
2023/06/12 02:51:39;;;;;;;;;;;19.90;66.60;;;;;;4988758;28;19913;-68
2023/06/12 02:54:05;;;;;;;;;;;19.90;66.70;;;;;;4988676;28;19955;-68
2023/06/12 02:56:30;;;;;;;;;;;19.90;66.70;;;;;;4982637;28;19967;-68
2023/06/12 02:58:56;;;;;;;;;;;19.90;66.90;;;;;;4987971;28;20000;-68
2023/06/12 03:01:21;;;;;;;;;;;19.90;66.90;;;;;;4988510;28;20311;-68
2023/06/12 03:03:48;;;;;;;;;;;19.80;66.80;;;;;;4988370;28;19914;-68
2023/06/12 03:06:13;;;;;;;;;;;19.80;66.90;;;;;;4988211;28;20631;-68
2023/06/12 03:08:39;;;;;;;;;;;19.80;67.00;;;;;;4976502;28;19987;-68
2023/06/12 03:11:05;;;;;;;;;;;19.80;66.90;;;;;;4968960;28;19910;-68
2023/06/12 03:13:31;;;;;;;;;;;19.80;67.10;;;;;;4968888;28;19967;-68
2023/06/12 03:15:57;;;;;;;;;;;19.70;67.10;;;;;;4968601;28;20324;-68
2023/06/12 03:18:22;;;;;;;;;;;19.70;67.20;;;;;;4968912;28;20008;-68
2023/06/12 03:20:48;;;;;;;;;;;19.70;67.20;;;;;;4968572;28;19910;-68
2023/06/12 03:23:14;;;;;;;;;;;19.70;67.30;;;;;;4998845;28;19978;-68
2023/06/12 03:25:40;;;;;;;;;;;19.70;67.50;;;;;;5089606;28;20254;-68
2023/06/12 03:28:05;;;;;;;;;;;19.60;67.40;;;;;;5090065;28;19919;-68
2023/06/12 03:30:31;;;;;;;;;;;19.60;67.50;;;;;;5005415;28;19914;-68
2023/06/12 03:32:57;;;;;;;;;;;19.60;67.50;;;;;;4987941;28;19914;-68
2023/06/12 03:35:23;;;;;;;;;;;19.60;67.60;;;;;;4987589;28;19918;-68
2023/06/12 03:37:49;;;;;;;;;;;19.50;67.60;;;;;;4982538;28;19921;-68
2023/06/12 03:40:14;;;;;;;;;;;19.50;67.60;;;;;;4968520;28;19914;-68
2023/06/12 03:42:40;;;;;;;;;;;19.50;67.80;;;;;;4968405;28;19988;-68
2023/06/12 03:45:06;;;;;;;;;;;19.50;67.50;;;;;;4968237;28;19918;-68
2023/06/12 03:47:31;;;;;;;;;;;19.50;67.90;;;;;;4966750;28;20381;-68
2023/06/12 03:49:57;;;;;;;;;;;19.50;67.90;;;;;;4968265;28;19960;-68
2023/06/12 03:52:22;;;;;;;;;;;19.40;68.00;;;;;;4968540;28;20387;-68
2023/06/12 03:54:49;;;;;;;;;;;19.40;68.00;;;;;;4968369;28;20352;-68
2023/06/12 03:57:14;;;;;;;;;;;19.40;68.00;;;;;;4984380;28;19914;-68
2023/06/12 03:59:40;;;;;;;;;;;19.40;68.00;;;;;;4987298;28;19921;-68
2023/06/12 04:02:05;;;;;;;;;;;19.40;68.10;;;;;;4987364;28;20493;-68
2023/06/12 04:04:32;;;;;;;;;;;19.40;68.20;;;;;;4985955;28;20282;-68
2023/06/12 04:06:59;;;;;;;;;;;19.40;68.10;;;;;;4987234;28;19968;-68
2023/06/12 04:09:25;;;;;;;;;;;19.40;68.20;;;;;;4969439;28;19964;-68
2023/06/12 04:11:50;;;;;;;;;;;19.30;68.20;;;;;;4968233;28;19914;-68
2023/06/12 04:14:16;;;;;;;;;;;19.30;68.30;;;;;;4967912;28;19971;-68
2023/06/12 04:16:41;;;;;;;;;;;19.30;68.30;;;;;;4967727;28;19949;-68
2023/06/12 04:19:08;;;;;;;;;;;19.30;68.40;;;;;;4967776;28;19921;-68
2023/06/12 04:21:35;;;;;;;;;;;19.30;68.40;;;;;;4968006;28;19984;-68
2023/06/12 04:24:02;;;;;;;;;;;19.30;68.50;;;;;;4967638;28;19922;-68
2023/06/12 04:26:28;;;;;;;;;;;19.30;68.40;;;;;;4967681;28;19950;-68
2023/06/12 04:28:54;;;;;;;;;;;19.20;68.50;;;;;;4967468;28;19973;-68
2023/06/12 04:31:20;;;;;;;;;;;19.20;68.40;;;;;;4978679;28;19916;-68
2023/06/12 04:33:46;;;;;;;;;;;19.20;68.60;;;;;;4985430;28;19914;-68
2023/06/12 04:36:13;;;;;;;;;;;19.20;68.80;;;;;;4986955;28;19914;-68
2023/06/12 04:38:39;;;;;;;;;;;19.20;68.60;;;;;;4974080;28;19911;-68
2023/06/12 04:41:05;;;;;;;;;;;19.20;68.70;;;;;;4967617;28;19916;-68
2023/06/12 04:43:31;;;;;;;;;;;19.20;68.90;;;;;;4967584;28;20016;-68
2023/06/12 04:45:57;;;;;;;;;;;19.20;68.90;;;;;;4967306;28;20320;-68
2023/06/12 04:48:23;;;;;;;;;;;19.20;69.10;;;;;;4989364;28;20004;-68
2023/06/12 04:50:50;;;;;;;;;;;19.20;69.00;;;;;;4986631;28;19945;-68
2023/06/12 04:53:19;;;;;;;;;;;19.20;69.00;;;;;;4987001;28;19917;-68
2023/06/12 04:55:50;;;;;;;;;;;19.20;69.10;;;;;;4981748;28;20317;-68
2023/06/12 04:58:18;;;;;;;;;;;19.20;69.10;;;;;;4985969;28;19914;-68
2023/06/12 05:00:47;;;;;;;;;;;19.20;69.00;;;;;;4983053;28;19918;-68
2023/06/12 05:03:16;;;;;;;;;;;19.20;69.10;;;;;;5044313;28;20430;-68
2023/06/12 05:05:42;;;;;;;;;;;19.20;69.00;;;;;;5012123;28;19918;-68
2023/06/12 05:08:08;;;;;;;;;;;19.20;69.30;;;;;;4977682;28;19968;-68
2023/06/12 05:10:33;;;;;;;;;;;19.20;69.20;;;;;;4966101;28;19953;-68
2023/06/12 05:12:59;;;;;;;;;;;19.10;69.20;;;;;;4964565;28;20264;-68
2023/06/12 05:15:24;;;;;;;;;;;19.20;69.30;;;;;;4965821;28;19910;-68
2023/06/12 05:17:50;;;;;;;;;;;19.20;69.30;;;;;;4966116;28;20397;-68
2023/06/12 05:20:15;;;;;;;;;;;19.10;69.20;;;;;;4966044;28;19914;-68
2023/06/12 05:22:41;;;;;;;;;;;19.20;69.50;;;;;;4965830;28;19922;-69
2023/06/12 05:25:07;;;;;;;;;;;19.10;69.50;;;;;;5067205;28;19920;-69
2023/06/12 05:27:32;;;;;;;;;;;19.20;69.50;;;;;;5087344;28;19912;-68
2023/06/12 05:29:58;;;;;;;;;;;19.10;69.50;;;;;;5088548;28;19962;-68
2023/06/12 05:32:23;;;;;;;;;;;19.20;69.60;;;;;;4992855;28;20327;-68
2023/06/12 05:34:49;;;;;;;;;;;19.10;69.50;;;;;;5005735;28;19952;-68
2023/06/12 05:37:15;;;;;;;;;;;19.20;69.60;;;;;;5004835;28;19917;-68
2023/06/12 05:39:42;;;;;;;;;;;19.20;69.60;;;;;;4984458;28;20445;-68
2023/06/12 05:42:08;;;;;;;;;;;19.20;69.60;;;;;;4986312;28;19999;-68
2023/06/12 05:44:33;;;;;;;;;;;19.20;69.60;;;;;;5002680;28;19979;-68
2023/06/12 05:46:58;;;;;;;;;;;19.20;69.80;;;;;;5003570;28;19909;-68
2023/06/12 05:49:24;;;;;;;;;;;19.20;69.70;;;;;;5006219;28;20373;-68
2023/06/12 05:51:50;;;;;;;;;;;19.20;69.70;;;;;;5009115;28;19913;-68
2023/06/12 05:54:15;;;;;;;;;;;19.20;69.70;;;;;;5008901;28;19994;-68
2023/06/12 05:56:41;;;;;;;;;;;19.20;69.50;;;;;;4990498;28;19921;-68
2023/06/12 05:59:06;;;;;;;;;;;19.20;69.80;;;;;;4988767;28;20014;-68
2023/06/12 06:01:32;;;;;;;;;;;19.20;69.70;;;;;;4987938;28;20443;-68
2023/06/12 06:03:58;;;;;;;;;;;19.20;69.80;;;;;;4989088;28;20001;-68
2023/06/12 06:06:24;;;;;;;;;;;19.20;69.80;;;;;;4989196;28;20005;-68
2023/06/12 06:08:49;;;;;;;;;;;19.20;69.80;;;;;;4975844;28;20532;-68
2023/06/12 06:11:15;;;;;;;;;;;19.20;69.80;;;;;;4969924;28;20423;-68
2023/06/12 06:13:42;;;;;;;;;;;19.20;69.80;;;;;;4969702;28;19921;-68
2023/06/12 06:16:08;;;;;;;;;;;19.30;69.90;;;;;;4969576;28;19918;-68
2023/06/12 06:18:33;;;;;;;;;;;19.30;69.90;;;;;;4969568;28;19911;-68
2023/06/12 06:20:59;;;;;;;;;;;19.30;69.80;;;;;;4969657;28;19956;-68
2023/06/12 06:23:25;;;;;;;;;;;19.30;69.90;;;;;;4969498;28;20031;-68
2023/06/12 06:25:50;;;;;;;;;;;19.30;69.80;;;;;;4969444;28;20000;-68
2023/06/12 06:28:16;;;;;;;;;;;19.30;69.90;;;;;;4969643;28;20006;-68
2023/06/12 06:30:41;;;;;;;;;;;19.30;69.80;;;;;;4974886;28;19920;-68
2023/06/12 06:33:07;;;;;;;;;;;19.30;70.00;;;;;;4989055;28;20362;-68
2023/06/12 06:35:32;;;;;;;;;;;19.30;70.00;;;;;;4988393;28;19916;-68
2023/06/12 06:37:58;;;;;;;;;;;19.30;69.90;;;;;;4982364;28;19910;-68
2023/06/12 06:40:24;;;;;;;;;;;19.40;70.00;;;;;;4968046;28;19910;-68
2023/06/12 06:42:50;;;;;;;;;;;19.40;70.00;;;;;;4969461;28;19921;-68
2023/06/12 06:45:15;;;;;;;;;;;19.40;69.80;;;;;;4969243;28;20461;-68
2023/06/12 06:47:41;;;;;;;;;;;19.40;70.00;;;;;;4968958;28;19918;-68
2023/06/12 06:50:07;;;;;;;;;;;19.40;69.80;;;;;;4969203;28;19921;-68
2023/06/12 06:52:32;;;;;;;;;;;19.40;70.00;;;;;;4967914;28;19920;-68
2023/06/12 06:54:58;;;;;;;;;;;19.40;70.00;;;;;;4969322;28;19914;-68
2023/06/12 06:57:23;;;;;;;;;;;19.40;70.00;;;;;;4996350;28;19921;-68
2023/06/12 06:59:50;;;;;;;;;;;19.50;70.00;;;;;;4988063;28;19936;-68
2023/06/12 07:02:15;;;;;;;;;;;19.50;70.10;;;;;;4986188;28;20603;-68
2023/06/12 07:04:42;;;;;;;;;;;19.50;70.00;;;;;;4986908;28;20004;-68
2023/06/12 07:07:08;;;;;;;;;;;19.50;69.80;;;;;;4988205;28;19945;-68
2023/06/12 07:09:33;;;;;;;;;;;19.50;69.70;;;;;;4969122;28;19949;-68
2023/06/12 07:11:59;;;;;;;;;;;19.60;69.90;;;;;;4969022;28;19910;-68
2023/06/12 07:14:24;;;;;;;;;;;19.60;69.90;;;;;;4968889;28;20603;-68
2023/06/12 07:16:50;;;;;;;;;;;19.60;69.70;;;;;;4968769;28;19932;-68
2023/06/12 07:19:15;;;;;;;;;;;19.60;69.80;;;;;;4968597;28;20366;-68
2023/06/12 07:21:41;;;;;;;;;;;19.70;69.60;;;;;;4983672;28;20040;-68
2023/06/12 07:24:06;;;;;;;;;;;19.70;69.70;;;;;;4968523;28;19957;-68
2023/06/12 07:26:32;;;;;;;;;;;19.70;69.60;;;;;;4968471;28;20059;-68
2023/06/12 07:28:58;;;;;;;;;;;19.70;69.50;;;;;;4982982;28;19913;-68
2023/06/12 07:31:23;;;;;;;;;;;19.70;69.40;;;;;;4996289;28;20349;-68
2023/06/12 07:33:49;;;;;;;;;;;19.80;69.40;;;;;;5026140;28;19916;-68
2023/06/12 07:36:15;;;;;;;;;;;19.80;69.30;;;;;;5090215;28;19912;-68
2023/06/12 07:38:41;;;;;;;;;;;19.80;69.20;;;;;;5026174;28;19957;-68
2023/06/12 07:41:07;;;;;;;;;;;19.90;69.10;;;;;;4988133;28;20431;-68
2023/06/12 07:43:34;;;;;;;;;;;19.90;69.10;;;;;;4987615;28;19918;-68
2023/06/12 07:46:00;;;;;;;;;;;19.90;69.60;;;;;;4987480;28;19963;-68
2023/06/12 07:48:26;;;;;;;;;;;20.00;69.00;;;;;;4987823;28;20108;-68
2023/06/12 07:50:51;;;;;;;;;;;20.00;68.90;;;;;;4987715;28;19922;-68
2023/06/12 07:53:17;;;;;;;;;;;20.00;68.70;;;;;;4987816;28;19922;-68
2023/06/12 07:55:43;;;;;;;;;;;20.10;68.80;;;;;;4987108;28;19993;-68
2023/06/12 07:58:09;;;;;;;;;;;20.10;68.80;;;;;;4985782;28;20016;-68
2023/06/12 08:00:35;;;;;;;;;;;20.10;68.70;;;;;;4987319;28;20004;-68
2023/06/12 08:03:02;;;;;;;;;;;20.10;68.50;;;;;;4987481;28;19918;-68
2023/06/12 08:05:27;;;;;;;;;;;20.20;68.60;;;;;;4985600;28;19967;-68
2023/06/12 08:07:53;;;;;;;;;;;20.20;68.40;;;;;;4981170;28;19910;-68
2023/06/12 08:10:19;;;;;;;;;;;20.30;68.50;;;;;;4968160;28;19949;-68
2023/06/12 08:12:44;;;;;;;;;;;20.30;68.60;;;;;;4968037;28;19953;-68
2023/06/12 08:15:11;;;;;;;;;;;20.30;68.30;;;;;;4967539;28;20355;-68
2023/06/12 08:17:36;;;;;;;;;;;20.30;68.10;;;;;;4967616;28;19964;-68
2023/06/12 08:20:06;;;;;;;;;;;20.40;68.20;;;;;;4967242;28;19914;-68
2023/06/12 08:22:32;;;;;;;;;;;20.50;68.00;;;;;;4967451;28;20379;-68
2023/06/12 08:24:57;;;;;;;;;;;20.50;67.90;;;;;;4967843;28;19921;-68
2023/06/12 08:27:23;;;;;;;;;;;20.50;67.90;;;;;;4967500;28;19985;-68
2023/06/12 08:29:49;;;;;;;;;;;20.60;67.90;;;;;;4967727;28;19914;-68
2023/06/12 08:32:15;;;;;;;;;;;20.60;67.80;;;;;;4985530;28;20433;-68
2023/06/12 08:34:40;;;;;;;;;;;20.60;67.60;;;;;;4985202;28;19949;-68
2023/06/12 08:37:06;;;;;;;;;;;20.70;67.70;;;;;;4986562;28;19917;-68
2023/06/12 08:39:31;;;;;;;;;;;20.70;67.60;;;;;;4967006;28;19956;-68
2023/06/12 08:42:14;;;;;;;;;;;20.70;67.60;;;;;;4967661;28;19922;-68
2023/06/12 08:44:42;;;;;;;;;;;20.80;67.50;;;;;;4967230;28;19910;-68
2023/06/12 08:47:08;;;;;;;;;;;20.80;67.60;;;;;;4967252;28;19930;-68
2023/06/12 08:49:34;;;;;;;;;;;20.80;67.60;;;;;;4999987;28;20457;-68
2023/06/12 08:52:01;;;;;;;;;;;20.80;67.60;;;;;;4986821;28;19914;-68
2023/06/12 08:54:27;;;;;;;;;;;20.80;67.50;;;;;;4986673;28;19914;-68
2023/06/12 08:56:54;;;;;;;;;;;20.90;67.40;;;;;;4980693;28;19917;-68
2023/06/12 08:59:20;;;;;;;;;;;20.90;67.40;;;;;;4984946;28;19917;-68
2023/06/12 09:01:50;;;;;;;;;;;21.00;67.30;;;;;;4986575;28;19924;-68
2023/06/12 09:04:21;;;;;;;;;;;21.00;67.60;;;;;;4986309;28;20013;-68
2023/06/12 09:06:47;;;;;;;;;;;21.10;67.10;;;;;;4985051;28;19918;-68
2023/06/12 09:09:13;;;;;;;;;;;21.10;66.90;;;;;;4970107;28;19914;-68
2023/06/12 09:11:38;;;;;;;;;;;21.20;66.90;;;;;;4967123;28;19983;-68
2023/06/12 09:14:04;;;;;;;;;;;21.30;66.80;;;;;;4967036;28;19949;-68
2023/06/12 09:16:30;;;;;;;;;;;21.30;66.60;;;;;;4966956;28;19945;-68
2023/06/12 09:18:56;;;;;;;;;;;21.40;66.60;;;;;;4966998;28;20017;-68
2023/06/12 09:21:22;;;;;;;;;;;21.40;66.50;;;;;;4967131;28;19950;-68
2023/06/12 09:23:52;;;;;;;;;;;21.50;66.60;;;;;;4967400;28;19933;-68
2023/06/12 09:26:19;;;;;;;;;;;21.50;66.40;;;;;;4969432;28;19921;-68
2023/06/12 09:28:44;;;;;;;;;;;21.60;66.50;;;;;;4986828;28;20507;-68
2023/06/12 09:31:10;;;;;;;;;;;21.60;66.40;;;;;;4999997;28;19921;-67
2023/06/12 09:33:39;;;;;;;;;;;21.70;66.30;;;;;;4987981;28;19917;-68
2023/06/12 09:36:05;;;;;;;;;;;21.80;66.30;;;;;;4989545;28;20249;-68
2023/06/12 09:38:31;;;;;;;;;;;21.80;66.30;;;;;;4991161;28;19922;-68
2023/06/12 09:40:57;;;;;;;;;;;21.90;66.30;;;;;;5092659;28;19935;-68
2023/06/12 09:43:29;;;;;;;;;;;21.90;66.20;;;;;;5092651;28;20354;-68
2023/06/12 09:45:55;;;;;;;;;;;22.00;66.20;;;;;;5092072;28;19914;-67
2023/06/12 09:48:21;;;;;;;;;;;22.10;66.10;;;;;;5092594;28;19912;-68
2023/06/12 09:50:46;;;;;;;;;;;22.10;66.10;;;;;;5092102;28;19913;-68
2023/06/12 09:53:12;;;;;;;;;;;22.20;66.30;;;;;;5092316;28;20391;-68
2023/06/12 09:55:39;;;;;;;;;;;22.30;66.10;;;;;;5069415;28;19910;-67
2023/06/12 09:58:07;;;;;;;;;;;22.30;66.20;;;;;;4987586;28;20317;-68
2023/06/12 10:00:33;;;;;;;;;;;22.40;66.40;;;;;;4989213;28;20393;-67
2023/06/12 10:03:02;;;;;;;;;;;22.50;66.20;;;;;;4989399;28;19949;-67
2023/06/12 10:05:35;;;;;;;;;;;22.50;66.10;;;;;;4988936;28;19967;-67
2023/06/12 10:08:01;;;;;;;;;;;22.60;66.00;;;;;;4982473;28;19911;-68
2023/06/12 10:10:27;;;;;;;;;;;22.60;66.00;;;;;;4969804;28;19914;-67
2023/06/12 10:12:53;;;;;;;;;;;22.60;66.30;;;;;;4969830;28;19968;-67
2023/06/12 10:15:19;;;;;;;;;;;22.70;66.20;;;;;;4969564;28;19914;-67
2023/06/12 10:17:46;;;;;;;;;;;22.80;65.70;;;;;;4984534;28;20306;-68
2023/06/12 10:20:12;;;;;;;;;;;22.90;66.00;;;;;;4969614;28;19918;-68
2023/06/12 10:22:38;;;;;;;;;;;23.00;65.80;;;;;;4968181;28;20397;-67
2023/06/12 10:25:05;;;;;;;;;;;23.10;65.80;;;;;;4969622;28;19956;-67
2023/06/12 10:27:31;;;;;;;;;;;23.10;65.80;;;;;;4969579;28;19914;-67
2023/06/12 10:29:57;;;;;;;;;;;23.30;65.60;;;;;;4969601;28;20359;-67
2023/06/12 10:32:23;;;;;;;;;;;23.40;66.10;;;;;;4988544;28;19960;-67
2023/06/12 10:34:52;;;;;;;;;;;23.40;66.00;;;;;;4988506;28;19933;-67
2023/06/12 10:37:31;;;;;;;;;;;23.50;66.00;;;;;;4986693;28;20008;-67
2023/06/12 10:40:07;;;;;;;;;;;23.60;65.90;;;;;;4968092;28;19921;-67
2023/06/12 10:42:45;;;;;;;;;;;23.80;65.30;;;;;;4969470;28;19987;-67
2023/06/12 10:45:22;;;;;;;;;;;24.00;65.70;;;;;;4967873;28;19914;-67
2023/06/12 10:48:03;;;;;;;;;;;24.10;65.40;;;;;;4969305;28;19914;-67
2023/06/12 10:50:33;;;;;;;;;;;24.30;65.90;;;;;;4969207;28;19914;-67
2023/06/12 10:53:02;;;;;;;;;;;24.40;65.30;;;;;;4974999;28;19957;-67
2023/06/12 10:55:27;;;;;;;;;;;24.50;65.50;;;;;;4996172;28;20007;-67
2023/06/12 10:57:54;;;;;;;;;;;24.50;65.60;;;;;;4988138;28;20365;-67
2023/06/12 11:00:21;;;;;;;;;;;24.60;65.10;;;;;;4988374;28;19914;-67
2023/06/12 11:02:54;;;;;;;;;;;24.70;65.10;;;;;;4988416;28;20016;-67
2023/06/12 11:05:20;;;;;;;;;;;24.90;65.10;;;;;;4986726;28;19996;-67
2023/06/12 11:07:46;;;;;;;;;;;25.00;64.80;;;;;;4982220;28;20001;-67
2023/06/12 11:10:12;;;;;;;;;;;25.00;64.60;;;;;;4969003;28;19946;-67
2023/06/12 11:12:45;;;;;;;;;;;25.20;64.50;;;;;;4983704;28;19952;-67
2023/06/12 11:15:10;;;;;;;;;;;25.30;64.50;;;;;;4968826;28;20009;-67
2023/06/12 11:17:36;;;;;;;;;;;25.40;64.30;;;;;;4968660;28;20018;-67
2023/06/12 11:20:01;;;;;;;;;;;25.50;64.20;;;;;;4968149;28;19968;-67
2023/06/12 11:22:27;;;;;;;;;;;25.60;63.90;;;;;;4968213;28;19929;-67
2023/06/12 11:25:03;;;;;;;;;;;25.80;64.00;;;;;;4968308;28;20506;-67
2023/06/12 11:27:28;;;;;;;;;;;25.90;64.10;;;;;;4967457;28;19952;-67
2023/06/12 11:29:54;;;;;;;;;;;26.00;64.00;;;;;;4967829;28;19942;-67
2023/06/12 11:32:20;;;;;;;;;;;26.10;63.80;;;;;;4987339;28;19914;-67
2023/06/12 11:34:45;;;;;;;;;;;26.20;63.60;;;;;;4988007;28;19991;-67
2023/06/12 11:37:18;;;;;;;;;;;26.30;63.40;;;;;;4997346;28;20009;-67
2023/06/12 11:39:43;;;;;;;;;;;26.40;63.50;;;;;;4986750;28;20542;-67
2023/06/12 11:42:11;;;;;;;;;;;26.50;63.30;;;;;;5002579;28;19918;-67
2023/06/12 11:44:39;;;;;;;;;;;26.70;63.20;;;;;;5089995;28;19917;-67
2023/06/12 11:47:06;;;;;;;;;;;26.80;63.00;;;;;;5088245;28;20255;-67
2023/06/12 11:49:33;;;;;;;;;;;26.80;63.00;;;;;;5090175;28;19912;-67
2023/06/12 11:51:59;;;;;;;;;;;27.00;62.10;;;;;;5090252;28;19962;-67
2023/06/12 11:54:25;;;;;;;;;;;27.10;63.00;;;;;;5090086;28;19912;-67
2023/06/12 11:56:51;;;;;;;;;;;27.30;63.00;;;;;;5012216;28;19917;-67
2023/06/12 11:59:18;;;;;;;;;;;27.30;63.00;;;;;;4987226;28;20477;-66
2023/06/12 12:01:48;;;;;;;;;;;27.40;62.70;;;;;;4987669;28;20413;-67
2023/06/12 12:04:17;;;;;;;;;;;27.50;62.70;;;;;;4987396;28;20012;-67
2023/06/12 12:06:49;;;;;;;;;;;27.70;62.60;;;;;;4987566;28;19914;-67
2023/06/12 12:09:14;;;;;;;;;;;27.70;62.50;;;;;;4970450;28;20544;-67
2023/06/12 12:11:40;;;;;;;;;;;27.70;62.40;;;;;;4967371;28;19918;-67
2023/06/12 12:14:05;;;;;;;;;;;27.80;62.50;;;;;;4966922;28;19918;-66
2023/06/12 12:16:38;;;;;;;;;;;27.80;62.50;;;;;;4967162;28;19921;-66
2023/06/12 12:19:16;;;;;;;;;;;27.90;62.50;;;;;;4967051;28;19914;-66
2023/06/12 12:21:48;;;;;;;;;;;28.00;62.40;;;;;;4967274;28;20531;-66
2023/06/12 12:24:13;;;;;;;;;;;28.00;62.40;;;;;;4967009;28;19918;-66
2023/06/12 12:26:41;;;;;;;;;;;28.10;62.40;;;;;;4967104;28;19956;-67
2023/06/12 12:29:07;;;;;;;;;;;28.20;62.50;;;;;;4981684;28;20413;-66
2023/06/12 12:31:33;;;;;;;;;;;28.30;62.30;;;;;;4986164;28;19917;-66
2023/06/12 12:33:58;;;;;;;;;;;28.30;62.70;;;;;;4986238;28;20293;-66
2023/06/12 12:36:24;;;;;;;;;;;28.40;62.50;;;;;;4986248;28;20000;-66
2023/06/12 12:38:49;;;;;;;;;;;28.30;62.60;;;;;;4973011;28;19910;-66
2023/06/12 12:41:16;;;;;;;;;;;28.40;62.70;;;;;;4966993;28;19914;-67
2023/06/12 12:43:41;;;;;;;;;;;28.40;62.70;;;;;;4966587;28;20369;-67
2023/06/12 12:46:07;;;;;;;;;;;28.50;62.60;;;;;;4965187;28;19921;-66
2023/06/12 12:48:34;;;;;;;;;;;28.60;63.30;;;;;;4965333;28;19914;-66
2023/06/12 12:50:59;;;;;;;;;;;28.60;62.70;;;;;;4965038;28;20001;-66
2023/06/12 12:53:25;;;;;;;;;;;28.60;61.80;;;;;;4966358;28;20013;-66
2023/06/12 12:55:50;;;;;;;;;;;28.70;61.50;;;;;;4971563;28;19921;-67
2023/06/12 12:58:16;;;;;;;;;;;28.70;62.50;;;;;;4984820;28;19976;-66
2023/06/12 13:00:41;;;;;;;;;;;28.80;62.70;;;;;;4985150;28;20005;-66
2023/06/12 13:03:07;;;;;;;;;;;28.70;62.70;;;;;;5005889;28;19915;-67
2023/06/12 13:05:32;;;;;;;;;;;28.80;62.80;;;;;;5049516;28;19912;-67
2023/06/12 13:07:58;;;;;;;;;;;28.80;63.20;;;;;;5053671;28;20409;-67
2023/06/12 13:10:23;;;;;;;;;;;28.90;62.90;;;;;;4985701;28;19920;-66
2023/06/12 13:12:49;;;;;;;;;;;28.90;62.60;;;;;;4985522;28;19926;-66
2023/06/12 13:15:14;;;;;;;;;;;28.90;62.00;;;;;;4985380;28;19975;-67
2023/06/12 13:17:40;;;;;;;;;;;29.00;62.60;;;;;;4985403;28;20458;-67
2023/06/12 13:20:06;;;;;;;;;;;29.10;62.40;;;;;;4985514;28;20329;-66
2023/06/12 13:22:32;;;;;;;;;;;29.10;62.50;;;;;;4985078;28;19922;-66
2023/06/12 13:24:58;;;;;;;;;;;29.20;61.60;;;;;;4985665;28;19917;-67
2023/06/12 13:27:23;;;;;;;;;;;29.20;60.20;;;;;;4985148;28;19926;-67
2023/06/12 13:29:49;;;;;;;;;;;29.30;61.70;;;;;;4985541;28;20475;-66
2023/06/12 13:32:14;;;;;;;;;;;29.40;60.90;;;;;;4984968;28;19918;-67
2023/06/12 13:34:41;;;;;;;;;;;29.40;61.70;;;;;;4983909;28;19914;-67
2023/06/12 13:37:06;;;;;;;;;;;29.40;61.50;;;;;;4984887;28;19925;-67
2023/06/12 13:39:32;;;;;;;;;;;29.40;62.00;;;;;;5035639;28;19922;-67
2023/06/12 13:41:58;;;;;;;;;;;29.40;61.90;;;;;;4992753;28;19970;-67
2023/06/12 13:44:23;;;;;;;;;;;29.50;62.10;;;;;;5026940;28;19974;-67
2023/06/12 13:46:49;;;;;;;;;;;29.50;58.30;;;;;;5016509;28;19988;-67
2023/06/12 13:49:14;;;;;;;;;;;29.60;61.90;;;;;;4985484;28;19910;-66
2023/06/12 13:51:40;;;;;;;;;;;29.60;61.50;;;;;;4985222;28;20718;-67
2023/06/12 13:54:06;;;;;;;;;;;29.60;61.80;;;;;;4985611;28;19917;-67
2023/06/12 13:56:32;;;;;;;;;;;29.60;61.60;;;;;;4979749;28;19952;-67
2023/06/12 13:58:58;;;;;;;;;;;29.70;61.30;;;;;;4985235;28;20350;-67
2023/06/12 14:01:24;;;;;;;;;;;29.70;60.80;;;;;;4985660;28;19963;-67
2023/06/12 14:03:52;;;;;;;;;;;29.70;58.60;;;;;;4985569;28;19918;-67
2023/06/12 14:06:18;;;;;;;;;;;29.80;61.50;;;;;;4984532;28;19967;-67
2023/06/12 14:08:44;;;;;;;;;;;29.80;61.10;;;;;;4972903;28;19910;-67
2023/06/12 14:11:10;;;;;;;;;;;29.80;60.90;;;;;;4977844;28;19951;-67